Terminal Aerodrome Forecast
Issued by NWS

Home | Current Version | Previous Version | Text Only | Print | Product List | Glossary On
Versions: 1 2 3 4 5 6 7 8 9 10 11 12 13 14
000
FTUS46 KSTO 201740 CCB
TAFRBL
TAF COR
KRBL 201740Z 2018/2118 17007KT 5SM -RA OVC020
      TEMPO 2018/2021 3SM RA
     FM210300 32003KT P6SM OVC030
      TEMPO 2103/2107 5SM BR OVC025
     FM211500 33006KT P6SM OVC100=

USA.gov is the U.S. government's official web portal to all federal, state and local government web resources and services.